Time;durP1;ratioP1;P1;durP2;ratioP2;P2;SDS_P1;SDS_P2;PMS_P1;PMS_P2;Temp;Humidity;BMP_temperature;BMP_pressure;BME280_temperature;BME280_humidity;BME280_pressure;Samples;Min_cycle;Max_cycle;Signal;HPM_P1;HPM_P2
2022/07/30 00:00:25;;;;;;;0.00;0.00;;;18.60;99.90;;;;;;5058477;28;20448;-76
2022/07/30 00:02:53;;;;;;;0.00;0.00;;;18.60;99.90;;;;;;5058188;28;20830;-76
2022/07/30 00:05:21;;;;;;;0.00;0.00;;;18.70;99.90;;;;;;5061320;28;20454;-78
2022/07/30 00:07:49;;;;;;;0.00;0.00;;;18.80;99.90;;;;;;5062519;28;20478;-78
2022/07/30 00:10:17;;;;;;;0.00;0.00;;;18.70;99.90;;;;;;5062318;28;20735;-79
2022/07/30 00:12:44;;;;;;;0.00;0.00;;;18.80;99.90;;;;;;5061748;28;21039;-78
2022/07/30 00:15:12;;;;;;;0.00;0.00;;;18.80;99.90;;;;;;5062029;28;20473;-81
2022/07/30 00:17:42;;;;;;;0.00;0.00;;;18.80;99.90;;;;;;5069050;28;20486;-82
2022/07/30 00:20:13;;;;;;;0.00;0.00;;;18.90;99.90;;;;;;5074243;28;20430;-81
2022/07/30 00:22:42;;;;;;;0.00;0.00;;;18.90;99.90;;;;;;5070724;28;20505;-81
2022/07/30 00:25:10;;;;;;;0.00;0.00;;;18.90;99.90;;;;;;5069904;28;20938;-81
2022/07/30 00:27:38;;;;;;;0.00;0.00;;;18.90;99.90;;;;;;5067413;28;20533;-81
2022/07/30 00:30:07;;;;;;;0.00;0.00;;;18.90;99.90;;;;;;5061636;28;20704;-81
2022/07/30 00:32:35;;;;;;;0.00;0.00;;;18.90;99.90;;;;;;5063649;28;20481;-82
2022/07/30 00:35:05;;;;;;;0.00;0.00;;;18.90;99.90;;;;;;5064510;28;20437;-77
2022/07/30 00:37:33;;;;;;;0.00;0.00;;;18.90;99.90;;;;;;5066232;28;20558;-80
2022/07/30 00:40:02;;;;;;;0.00;0.00;;;18.80;99.90;;;;;;5067993;28;20448;-79
2022/07/30 00:42:38;;;;;;;0.00;0.00;;;18.80;99.90;;;;;;5066487;28;20434;-80
2022/07/30 00:45:07;;;;;;;0.00;0.00;;;18.80;99.90;;;;;;5064533;28;20458;-81
2022/07/30 00:47:35;;;;;;;0.00;0.00;;;18.80;99.90;;;;;;5062623;28;20463;-81
2022/07/30 00:50:07;;;;;;;0.00;0.00;;;18.80;99.90;;;;;;5062638;28;20478;-81
2022/07/30 00:52:34;;;;;;;0.00;0.00;;;18.70;99.90;;;;;;5064636;28;20474;-78
2022/07/30 00:55:04;;;;;;;0.00;0.00;;;18.70;99.90;;;;;;5062845;28;20447;-77
2022/07/30 00:57:32;;;;;;;0.00;0.00;;;18.70;99.90;;;;;;5063314;28;20542;-79
2022/07/30 01:00:01;;;;;;;0.00;0.00;;;18.70;99.90;;;;;;5064043;28;20776;-79
2022/07/30 01:02:29;;;;;;;0.00;0.00;;;18.70;99.90;;;;;;5064244;28;20457;-80
2022/07/30 01:04:57;;;;;;;0.00;0.00;;;18.70;99.90;;;;;;5065277;28;20446;-79
2022/07/30 01:07:26;;;;;;;0.00;0.00;;;18.70;99.90;;;;;;5065051;28;20526;-79
2022/07/30 01:09:54;;;;;;;0.00;0.00;;;18.70;99.90;;;;;;5080948;28;20440;-79
2022/07/30 01:12:26;;;;;;;0.00;0.00;;;18.60;99.90;;;;;;5067733;28;20474;-79
2022/07/30 01:14:56;;;;;;;0.00;0.00;;;18.50;99.90;;;;;;5064762;28;20522;-79
2022/07/30 01:17:24;;;;;;;0.00;0.00;;;18.50;99.90;;;;;;5065275;28;20817;-79
2022/07/30 01:19:57;;;;;;;0.00;0.00;;;18.50;99.90;;;;;;5070556;28;20438;-88
2022/07/30 01:22:39;;;;;;;0.00;0.00;;;18.40;99.90;;;;;;5063643;28;20561;-78
2022/07/30 01:25:15;;;;;;;0.00;0.00;;;18.30;99.90;;;;;;5061886;28;20434;-78
2022/07/30 01:27:49;;;;;;;0.00;0.00;;;18.30;99.90;;;;;;5060195;28;20822;-77
2022/07/30 01:30:20;;;;;;;0.00;0.00;;;18.30;99.90;;;;;;5058696;28;20530;-79
2022/07/30 01:32:51;;;;;;;0.00;0.00;;;18.30;99.90;;;;;;5058468;28;20617;-78
2022/07/30 01:35:21;;;;;;;0.00;0.00;;;18.30;99.90;;;;;;5059382;28;20452;-77
2022/07/30 01:37:51;;;;;;;0.00;0.00;;;18.20;99.90;;;;;;5058540;28;21063;-78
2022/07/30 01:40:19;;;;;;;0.00;0.00;;;18.20;99.90;;;;;;5059881;28;20443;-78
2022/07/30 01:42:53;;;;;;;0.00;0.00;;;18.10;99.90;;;;;;5060278;28;20437;-80
2022/07/30 01:45:23;;;;;;;0.00;0.00;;;18.20;99.90;;;;;;5057818;28;20515;-75
2022/07/30 01:47:53;;;;;;;0.00;0.00;;;18.20;99.90;;;;;;5063798;28;21027;-83
2022/07/30 01:50:22;;;;;;;0.00;0.00;;;18.10;99.90;;;;;;5064181;28;20478;-79
2022/07/30 01:52:52;;;;;;;0.00;0.00;;;18.10;99.90;;;;;;5071824;28;20496;-78
2022/07/30 01:55:25;;;;;;;0.00;0.00;;;18.00;99.90;;;;;;5066890;28;20535;-80
2022/07/30 01:57:56;;;;;;;0.00;0.00;;;18.10;99.90;;;;;;5061680;28;20482;-77
2022/07/30 02:00:26;;;;;;;0.00;0.00;;;18.10;99.90;;;;;;5061340;28;20848;-78
2022/07/30 02:02:54;;;;;;;0.00;0.00;;;18.10;99.90;;;;;;5061444;28;20764;-78
2022/07/30 02:05:22;;;;;;;0.00;0.00;;;18.10;99.90;;;;;;5060774;28;20939;-77
2022/07/30 02:07:56;;;;;;;0.00;0.00;;;18.20;99.90;;;;;;5060532;28;20459;-77
2022/07/30 02:10:31;;;;;;;0.00;0.00;;;18.20;99.90;;;;;;5060990;28;20514;-78
2022/07/30 02:13:04;;;;;;;0.00;0.00;;;18.30;99.90;;;;;;5062205;28;20531;-78
2022/07/30 02:15:36;;;;;;;0.00;0.00;;;18.30;99.90;;;;;;5061654;28;20838;-78
2022/07/30 02:21:01;;;;;;;0.00;0.00;;;18.40;99.90;;;;;;5707844;22;20573;-90
2022/07/30 02:23:39;;;;;;;0.00;0.00;;;18.40;99.90;;;;;;4996896;28;20490;-89
2022/07/30 02:26:08;;;;;;;0.00;0.00;;;18.40;99.90;;;;;;4996414;28;20541;-91
2022/07/30 02:28:42;;;;;;;0.00;0.00;;;18.40;99.90;;;;;;4994965;28;20500;-92
2022/07/30 02:31:10;;;;;;;0.00;0.00;;;18.40;99.90;;;;;;4995329;28;20441;-89
2022/07/30 02:33:48;;;;;;;0.00;0.00;;;18.40;99.90;;;;;;5013043;28;20556;-87
2022/07/30 02:36:18;;;;;;;0.00;0.00;;;18.40;99.90;;;;;;5001615;28;20420;-88
2022/07/30 02:38:50;;;;;;;0.00;0.00;;;18.40;99.90;;;;;;4998972;28;20448;-92
2022/07/30 02:41:20;;;;;;;0.00;0.00;;;18.50;99.90;;;;;;4997426;28;20571;-90
2022/07/30 02:43:51;;;;;;;0.00;0.00;;;18.50;99.90;;;;;;4997179;28;20486;-91
2022/07/30 02:46:22;;;;;;;0.00;0.00;;;18.50;99.90;;;;;;4997081;28;20643;-91
2022/07/30 02:48:53;;;;;;;0.00;0.00;;;18.60;99.90;;;;;;4997450;28;20465;-93
2022/07/30 02:51:25;;;;;;;0.00;0.00;;;18.60;99.90;;;;;;4996269;28;20558;-90
2022/07/30 02:53:55;;;;;;;0.00;0.00;;;18.60;99.90;;;;;;4996628;28;20509;-92
2022/07/30 02:56:24;;;;;;;0.00;0.00;;;18.60;99.90;;;;;;4996231;28;20548;-91
2022/07/30 02:58:55;;;;;;;0.00;0.00;;;18.60;99.90;;;;;;4995106;28;20528;-91
2022/07/30 03:01:24;;;;;;;0.00;0.00;;;18.60;99.90;;;;;;4996447;28;21121;-92
2022/07/30 03:03:54;;;;;;;0.00;0.00;;;18.60;99.90;;;;;;4996966;28;20890;-89
2022/07/30 03:06:24;;;;;;;0.00;0.00;;;18.60;99.90;;;;;;4996583;28;20485;-91
2022/07/30 03:08:54;;;;;;;0.00;0.00;;;18.60;99.90;;;;;;4998978;28;20417;-92
2022/07/30 03:11:26;;;;;;;0.00;0.00;;;18.60;99.90;;;;;;5000748;28;20497;-90
2022/07/30 03:13:56;;;;;;;0.00;0.00;;;18.60;99.90;;;;;;5000430;28;20844;-90
2022/07/30 03:16:26;;;;;;;0.00;0.00;;;18.60;99.90;;;;;;4998654;28;20491;-91
2022/07/30 03:19:02;;;;;;;0.00;0.00;;;18.60;99.90;;;;;;4997067;28;20477;-90
2022/07/30 03:21:38;;;;;;;0.00;0.00;;;18.60;99.90;;;;;;4997447;28;20960;-90
2022/07/30 03:24:10;;;;;;;0.00;0.00;;;18.60;99.90;;;;;;4980400;28;20481;-90
2022/07/30 03:26:40;;;;;;;0.00;0.00;;;18.50;99.90;;;;;;5000556;28;20465;-90
2022/07/30 03:29:14;;;;;;;0.00;0.00;;;18.60;99.90;;;;;;5006726;28;20450;-90
2022/07/30 03:31:43;;;;;;;0.00;0.00;;;18.50;99.90;;;;;;5003729;28;20560;-90
2022/07/30 03:34:12;;;;;;;0.00;0.00;;;18.60;99.90;;;;;;5015376;28;20465;-90
2022/07/30 03:36:41;;;;;;;0.00;0.00;;;18.60;99.90;;;;;;4837770;28;5001475;-89
2022/07/30 03:39:10;;;;;;;0.00;0.00;;;18.50;99.90;;;;;;5024351;28;20278;-90
2022/07/30 03:41:38;;;;;;;0.00;0.00;;;18.50;99.90;;;;;;5025869;28;20480;-90
2022/07/30 03:44:09;;;;;;;0.00;0.00;;;18.50;99.90;;;;;;5023391;28;20447;-91
2022/07/30 03:46:38;;;;;;;0.00;0.00;;;18.50;99.90;;;;;;5023513;28;20472;-92
2022/07/30 03:49:06;;;;;;;0.00;0.00;;;18.50;99.90;;;;;;5024413;28;20543;-91
2022/07/30 03:51:35;;;;;;;0.00;0.00;;;18.50;99.90;;;;;;5025098;28;20477;-91
2022/07/30 03:54:08;;;;;;;0.00;0.00;;;18.50;99.90;;;;;;5024676;28;20469;-90
2022/07/30 03:56:41;;;;;;;0.00;0.00;;;18.50;99.90;;;;;;5021772;28;20443;-88
2022/07/30 03:59:10;;;;;;;0.00;0.00;;;18.40;99.90;;;;;;5026792;28;20429;-90
2022/07/30 04:01:38;;;;;;;0.00;0.00;;;18.40;99.90;;;;;;5022940;28;21150;-89
2022/07/30 04:04:07;;;;;;;0.00;0.00;;;18.30;99.90;;;;;;5019917;28;20443;-89
2022/07/30 04:06:38;;;;;;;0.00;0.00;;;18.30;99.90;;;;;;5019346;28;20508;-90
2022/07/30 04:09:07;;;;;;;0.00;0.00;;;18.30;99.90;;;;;;5016513;28;20460;-90
2022/07/30 04:11:36;;;;;;;0.00;0.00;;;18.20;99.90;;;;;;5016698;28;20455;-91
2022/07/30 04:14:10;;;;;;;0.00;0.00;;;18.20;99.90;;;;;;5016234;28;20476;-90
2022/07/30 04:16:46;;;;;;;0.00;0.00;;;18.20;99.90;;;;;;5017157;28;21140;-90
2022/07/30 04:19:21;;;;;;;0.00;0.00;;;18.20;99.90;;;;;;5016689;28;21067;-92
2022/07/30 04:21:51;;;;;;;0.00;0.00;;;18.20;99.90;;;;;;5015034;28;20914;-90
2022/07/30 04:24:19;;;;;;;0.00;0.00;;;18.20;99.90;;;;;;5014901;28;20961;-92
2022/07/30 04:26:48;;;;;;;0.00;0.00;;;18.20;99.90;;;;;;5012888;28;20436;-92
2022/07/30 04:29:18;;;;;;;0.00;0.00;;;18.20;99.90;;;;;;5014143;28;20456;-91
2022/07/30 04:31:52;;;;;;;0.00;0.00;;;18.20;99.90;;;;;;5012256;28;20988;-93
2022/07/30 04:34:21;;;;;;;0.00;0.00;;;18.20;99.90;;;;;;5022165;28;20504;-93
2022/07/30 04:36:49;;;;;;;0.00;0.00;;;18.30;99.90;;;;;;5015973;28;20480;-89
2022/07/30 04:39:17;;;;;;;0.00;0.00;;;18.30;99.90;;;;;;5020307;28;20445;-92
2022/07/30 04:41:45;;;;;;;0.00;0.00;;;18.30;99.90;;;;;;5017546;28;20553;-92
2022/07/30 04:44:19;;;;;;;0.00;0.00;;;18.40;99.90;;;;;;5014882;28;20445;-91
2022/07/30 04:46:48;;;;;;;0.00;0.00;;;18.40;99.90;;;;;;5014664;28;20748;-90
2022/07/30 04:49:17;;;;;;;0.00;0.00;;;18.40;99.90;;;;;;5014623;28;20459;-92
2022/07/30 04:52:05;;;;;;;0.00;0.00;;;18.40;99.90;;;;;;5013951;28;20544;-91
2022/07/30 04:56:01;;;;;;;;;;;;;;;;;;;;;
2022/07/30 05:02:46;;;;;;;0.00;0.00;;;18.40;99.90;;;;;;4949828;28;21218;-91
2022/07/30 05:05:17;;;;;;;0.00;0.00;;;18.40;99.90;;;;;;4951535;29;20448;-90
2022/07/30 05:08:05;;;;;;;0.00;0.00;;;18.40;99.90;;;;;;4952658;29;20459;-92
2022/07/30 05:13:31;;;;;;;0.00;0.00;;;18.50;99.90;;;;;;4996905;28;20576;-67
2022/07/30 05:16:05;;;;;;;0.00;0.00;;;18.50;99.90;;;;;;4997735;28;20845;-70
2022/07/30 05:18:38;;;;;;;0.00;0.00;;;18.50;99.90;;;;;;4997811;28;20462;-69
2022/07/30 05:21:06;;;;;;;0.00;0.00;;;18.50;99.90;;;;;;4999047;28;20736;-71
2022/07/30 05:23:37;;;;;;;0.00;0.00;;;18.60;99.90;;;;;;5002104;28;20441;-72
2022/07/30 05:26:05;;;;;;;0.00;0.00;;;18.60;99.90;;;;;;5002039;28;20998;-71
2022/07/30 05:28:33;;;;;;;0.00;0.00;;;18.60;99.90;;;;;;5002592;28;20543;-70
2022/07/30 05:31:02;;;;;;;0.00;0.00;;;18.70;99.90;;;;;;5003598;28;20449;-70
2022/07/30 05:33:35;;;;;;;0.00;0.00;;;18.70;99.90;;;;;;5000820;28;20599;-70
2022/07/30 05:36:10;;;;;;;0.00;0.00;;;18.70;99.90;;;;;;5002863;28;20505;-70
2022/07/30 05:38:38;;;;;;;0.00;0.00;;;18.80;99.90;;;;;;5003987;28;20464;-71
2022/07/30 05:41:06;;;;;;;0.00;0.00;;;18.80;99.90;;;;;;5002668;28;21040;-70
2022/07/30 05:43:54;;;;;;;0.00;0.00;;;18.80;99.90;;;;;;5001883;28;20436;-71
2022/07/30 05:46:23;;;;;;;0.00;0.00;;;18.90;99.90;;;;;;5001860;28;20639;-70
2022/07/30 05:48:51;;;;;;;0.00;0.00;;;18.90;99.90;;;;;;5001589;28;20823;-70
2022/07/30 05:51:21;;;;;;;0.00;0.00;;;18.90;99.90;;;;;;5001526;28;20446;-70
2022/07/30 05:53:49;;;;;;;0.00;0.00;;;19.00;99.90;;;;;;5001551;28;21000;-70
2022/07/30 05:56:19;;;;;;;0.00;0.00;;;19.00;99.90;;;;;;5001471;28;20575;-70
2022/07/30 05:58:47;;;;;;;0.00;0.00;;;19.00;99.90;;;;;;5001669;28;20468;-67
2022/07/30 06:01:15;;;;;;;0.00;0.00;;;19.00;99.90;;;;;;4998690;28;21079;-70
2022/07/30 06:03:43;;;;;;;0.00;0.00;;;19.10;99.90;;;;;;4989304;28;20527;-72
2022/07/30 06:06:11;;;;;;;0.00;0.00;;;19.10;99.90;;;;;;5001267;28;20440;-73
2022/07/30 06:08:40;;;;;;;0.00;0.00;;;19.10;99.90;;;;;;5001230;28;20489;-72
2022/07/30 06:11:08;;;;;;;0.00;0.00;;;19.20;99.90;;;;;;5000906;28;20466;-69
2022/07/30 06:13:37;;;;;;;0.00;0.00;;;19.20;99.90;;;;;;5002204;28;20883;-74
2022/07/30 06:16:05;;;;;;;0.00;0.00;;;19.30;99.90;;;;;;5007217;28;20477;-77
2022/07/30 06:18:33;;;;;;;0.00;0.00;;;19.30;99.90;;;;;;5007604;28;20662;-79
2022/07/30 06:21:01;;;;;;;0.00;0.00;;;19.30;99.90;;;;;;5008457;28;20551;-74
2022/07/30 06:23:29;;;;;;;0.00;0.00;;;19.40;99.90;;;;;;4988852;28;20470;-68
2022/07/30 06:25:58;;;;;;;0.00;0.00;;;19.40;99.90;;;;;;4997704;28;20638;-67
2022/07/30 06:28:26;;;;;;;0.00;0.00;;;19.40;99.90;;;;;;4999586;28;20469;-68
2022/07/30 06:31:05;;;;;;;0.00;0.00;;;19.50;99.90;;;;;;4997945;28;20434;-67
2022/07/30 06:33:36;;;;;;;0.00;0.00;;;19.60;99.90;;;;;;4999869;28;20537;-67
2022/07/30 06:36:07;;;;;;;0.00;0.00;;;19.60;99.90;;;;;;4998282;28;20474;-67
2022/07/30 06:38:40;;;;;;;0.00;0.00;;;19.60;99.90;;;;;;5000119;28;20466;-68
2022/07/30 06:41:10;;;;;;;0.00;0.00;;;19.60;99.90;;;;;;4999965;28;20442;-67
2022/07/30 06:43:38;;;;;;;0.00;0.00;;;19.70;99.90;;;;;;4999634;28;20549;-66
2022/07/30 06:46:06;;;;;;;0.00;0.00;;;19.70;99.90;;;;;;5000501;28;20944;-66
2022/07/30 06:48:35;;;;;;;0.00;0.00;;;19.70;99.90;;;;;;4999782;28;20996;-67
2022/07/30 06:51:03;;;;;;;0.00;0.00;;;19.70;99.90;;;;;;4999390;28;20438;-67
2022/07/30 06:53:31;;;;;;;0.00;0.00;;;19.70;99.90;;;;;;5000023;28;20972;-67
2022/07/30 06:56:05;;;;;;;0.00;0.00;;;19.70;99.90;;;;;;4999681;28;20482;-68
2022/07/30 06:58:34;;;;;;;0.00;0.00;;;19.70;99.90;;;;;;4999823;28;20457;-67
2022/07/30 07:01:02;;;;;;;0.00;0.00;;;19.80;99.90;;;;;;5000105;28;20533;-67
2022/07/30 07:03:38;;;;;;;0.00;0.00;;;19.80;99.90;;;;;;5005265;28;20438;-67
2022/07/30 07:06:07;;;;;;;0.00;0.00;;;19.70;99.90;;;;;;5001533;28;20949;-67
2022/07/30 07:08:36;;;;;;;0.00;0.00;;;19.80;99.90;;;;;;5001696;28;21027;-68
2022/07/30 07:11:03;;;;;;;0.00;0.00;;;19.80;99.90;;;;;;4999790;28;20489;-68
2022/07/30 07:13:31;;;;;;;0.00;0.00;;;19.80;99.90;;;;;;4999519;28;20941;-67
2022/07/30 07:16:01;;;;;;;0.00;0.00;;;19.90;99.90;;;;;;4995527;28;20489;-66
2022/07/30 07:18:29;;;;;;;0.00;0.00;;;19.90;99.90;;;;;;4993627;28;20473;-67
2022/07/30 07:20:57;;;;;;;0.00;0.00;;;20.00;99.90;;;;;;4985443;28;20952;-70
2022/07/30 07:23:25;;;;;;;0.00;0.00;;;20.10;99.90;;;;;;4993839;28;20533;-80
2022/07/30 07:26:09;;;;;;;0.00;0.00;;;20.10;99.90;;;;;;5000825;28;21087;-81
2022/07/30 07:28:38;;;;;;;0.00;0.00;;;20.20;99.90;;;;;;4993463;28;20640;-81
2022/07/30 07:31:08;;;;;;;0.00;0.00;;;20.30;99.90;;;;;;5000206;28;20465;-81
2022/07/30 07:33:36;;;;;;;0.00;0.00;;;20.30;99.90;;;;;;5003763;28;20447;-80
2022/07/30 07:36:05;;;;;;;0.00;0.00;;;20.40;99.90;;;;;;5003935;28;20520;-80
2022/07/30 07:38:33;;;;;;;0.00;0.00;;;20.50;99.90;;;;;;4995124;28;20481;-82
2022/07/30 07:41:01;;;;;;;0.00;0.00;;;20.60;99.90;;;;;;4990679;28;20620;-81
2022/07/30 07:43:29;;;;;;;0.00;0.00;;;20.70;99.90;;;;;;4987612;28;20537;-81
2022/07/30 07:45:57;;;;;;;0.00;0.00;;;20.90;99.90;;;;;;4990180;28;20533;-81
2022/07/30 07:48:26;;;;;;;0.00;0.00;;;21.00;99.90;;;;;;4990123;28;20578;-81
2022/07/30 07:50:54;;;;;;;0.00;0.00;;;21.20;99.90;;;;;;4990030;28;20545;-82
2022/07/30 07:53:27;;;;;;;0.00;0.00;;;21.40;99.90;;;;;;4983471;28;21091;-82
2022/07/30 07:55:55;;;;;;;0.00;0.00;;;21.50;99.90;;;;;;4983838;28;20490;-81
2022/07/30 07:58:24;;;;;;;0.00;0.00;;;21.60;99.90;;;;;;4987819;28;20474;-82
2022/07/30 08:00:53;;;;;;;0.00;0.00;;;21.80;99.90;;;;;;4996263;28;20711;-79
2022/07/30 08:03:21;;;;;;;0.00;0.00;;;21.90;99.90;;;;;;4998149;28;20467;-80
2022/07/30 08:05:50;;;;;;;0.00;0.00;;;21.90;99.90;;;;;;5003225;28;20459;-80
2022/07/30 08:08:32;;;;;;;0.00;0.00;;;22.00;99.90;;;;;;4993690;28;20790;-80
2022/07/30 08:11:00;;;;;;;0.00;0.00;;;22.10;99.90;;;;;;4999775;28;20443;-80
2022/07/30 08:13:28;;;;;;;0.00;0.00;;;22.20;99.90;;;;;;4982784;28;20522;-80
2022/07/30 08:16:17;;;;;;;0.00;0.00;;;22.30;99.90;;;;;;4982590;28;20872;-79
2022/07/30 08:18:45;;;;;;;0.00;0.00;;;22.40;99.90;;;;;;4997163;28;20503;-79
2022/07/30 08:21:14;;;;;;;0.00;0.00;;;22.40;99.90;;;;;;4988650;28;20526;-78
2022/07/30 08:23:42;;;;;;;0.00;0.00;;;22.50;99.90;;;;;;4994280;28;20582;-80
2022/07/30 08:26:10;;;;;;;0.00;0.00;;;22.60;99.90;;;;;;4990066;28;20578;-79
2022/07/30 08:28:38;;;;;;;0.00;0.00;;;22.70;99.90;;;;;;5011510;28;20619;-79
2022/07/30 08:31:06;;;;;;;0.00;0.00;;;22.90;99.90;;;;;;5011784;28;20443;-78
2022/07/30 08:33:34;;;;;;;0.00;0.00;;;23.10;99.90;;;;;;5015044;28;20461;-79
2022/07/30 08:36:02;;;;;;;0.00;0.00;;;23.20;99.90;;;;;;5011231;28;20733;-79
2022/07/30 08:38:38;;;;;;;0.00;0.00;;;23.30;99.90;;;;;;5016169;28;20446;-78
2022/07/30 08:41:06;;;;;;;0.00;0.00;;;23.50;99.90;;;;;;4994116;28;20972;-80
2022/07/30 08:43:36;;;;;;;0.00;0.00;;;23.60;99.90;;;;;;4996793;28;20610;-78
2022/07/30 08:46:07;;;;;;;0.00;0.00;;;23.60;99.90;;;;;;4994709;28;20575;-79
2022/07/30 08:48:36;;;;;;;0.00;0.00;;;23.70;99.90;;;;;;5001499;28;20578;-78
2022/07/30 08:51:04;;;;;;;0.00;0.00;;;23.70;99.90;;;;;;4992653;28;20466;-79
2022/07/30 08:53:34;;;;;;;0.00;0.00;;;23.80;99.90;;;;;;4991704;28;20478;-79
2022/07/30 08:56:08;;;;;;;0.00;0.00;;;23.90;99.90;;;;;;5002959;28;20543;-79
2022/07/30 08:58:36;;;;;;;0.00;0.00;;;23.90;99.90;;;;;;4994884;28;20480;-71
2022/07/30 09:01:05;;;;;;;0.00;0.00;;;24.00;99.90;;;;;;4981454;28;20690;-75
2022/07/30 09:03:37;;;;;;;0.00;0.00;;;24.10;99.90;;;;;;4997038;28;20754;-76
2022/07/30 09:06:11;;;;;;;0.00;0.00;;;24.20;99.90;;;;;;4992291;28;21059;-75
2022/07/30 09:08:39;;;;;;;0.00;0.00;;;24.40;99.90;;;;;;4991153;28;20478;-73
2022/07/30 09:11:08;;;;;;;0.00;0.00;;;24.40;99.90;;;;;;4995843;28;20483;-75
2022/07/30 09:13:38;;;;;;;0.00;0.00;;;24.60;99.90;;;;;;4983961;28;20494;-75
2022/07/30 09:16:06;;;;;;;0.00;0.00;;;24.70;99.90;;;;;;4985948;28;20453;-75
2022/07/30 09:18:37;;;;;;;0.00;0.00;;;24.70;99.90;;;;;;4983383;28;20576;-73
2022/07/30 09:21:15;;;;;;;0.00;0.00;;;24.80;99.90;;;;;;4989666;28;20710;-77
2022/07/30 09:23:55;;;;;;;0.00;0.00;;;24.80;99.90;;;;;;4998099;28;20568;-76
2022/07/30 09:26:24;;;;;;;0.00;0.00;;;24.90;99.90;;;;;;4990659;28;21223;-74
2022/07/30 09:28:52;;;;;;;0.00;0.00;;;24.90;99.90;;;;;;5001365;28;20997;-78
2022/07/30 09:31:22;;;;;;;0.00;0.00;;;24.80;99.90;;;;;;5000208;28;20971;-78
2022/07/30 09:33:50;;;;;;;0.00;0.00;;;24.80;99.90;;;;;;5000512;28;20465;-77
2022/07/30 09:36:18;;;;;;;0.00;0.00;;;24.90;99.90;;;;;;4997407;28;20638;-77
2022/07/30 09:38:48;;;;;;;0.00;0.00;;;24.90;99.90;;;;;;4995434;28;20487;-77
2022/07/30 09:41:18;;;;;;;0.00;0.00;;;24.80;99.90;;;;;;4997387;28;20483;-78
2022/07/30 09:44:07;;;;;;;0.00;0.00;;;24.80;99.90;;;;;;4992926;28;20466;-78
2022/07/30 09:46:43;;;;;;;0.00;0.00;;;24.80;99.90;;;;;;4994548;28;20477;-76
2022/07/30 09:49:15;;;;;;;0.00;0.00;;;24.80;99.90;;;;;;5010669;28;20938;-78
2022/07/30 09:51:43;;;;;;;0.00;0.00;;;25.00;99.90;;;;;;5004980;28;20449;-77
2022/07/30 09:54:24;;;;;;;0.00;0.00;;;25.20;99.90;;;;;;5007858;28;20445;-82
2022/07/30 09:57:06;;;;;;;0.00;0.00;;;25.20;99.90;;;;;;5013644;28;20471;-77
2022/07/30 09:59:56;;;;;;;0.00;0.00;;;25.30;99.90;;;;;;5014610;28;20437;-77
2022/07/30 10:02:30;;;;;;;0.00;0.00;;;25.20;99.90;;;;;;5006776;28;20453;-77
2022/07/30 10:05:09;;;;;;;0.00;0.00;;;25.20;99.90;;;;;;5004975;28;20557;-76
2022/07/30 10:07:49;;;;;;;0.00;0.00;;;25.10;99.90;;;;;;5007077;28;20521;-76
2022/07/30 10:10:20;;;;;;;0.00;0.00;;;25.20;99.90;;;;;;5008639;28;20882;-80
2022/07/30 10:12:54;;;;;;;0.00;0.00;;;25.20;99.90;;;;;;5004064;28;20560;-77
2022/07/30 10:15:25;;;;;;;0.00;0.00;;;25.30;99.90;;;;;;5004294;28;20429;-77
2022/07/30 10:18:01;;;;;;;0.00;0.00;;;25.30;99.90;;;;;;5002690;28;20483;-75
2022/07/30 10:20:35;;;;;;;0.00;0.00;;;25.30;99.90;;;;;;4996849;28;20457;-76
2022/07/30 10:23:06;;;;;;;0.00;0.00;;;25.20;99.90;;;;;;4991589;28;20969;-75
2022/07/30 10:25:37;;;;;;;0.00;0.00;;;25.10;99.90;;;;;;4984479;28;20509;-76
2022/07/30 10:28:22;;;;;;;0.00;0.00;;;25.10;99.90;;;;;;4983941;28;21054;-76
2022/07/30 10:30:53;;;;;;;0.00;0.00;;;25.10;99.90;;;;;;4981571;28;20882;-75
2022/07/30 10:33:23;;;;;;;0.00;0.00;;;25.00;99.90;;;;;;4990260;28;20611;-76
2022/07/30 10:36:03;;;;;;;0.00;0.00;;;25.00;99.90;;;;;;4994608;28;20449;-76
2022/07/30 10:38:33;;;;;;;0.00;0.00;;;24.90;99.90;;;;;;5002587;28;20910;-76
2022/07/30 10:41:22;;;;;;;0.00;0.00;;;24.90;99.90;;;;;;4992067;28;20453;-74
2022/07/30 10:44:41;;;;;;;0.00;0.00;;;24.90;99.90;;;;;;4980803;28;20441;-76
2022/07/30 10:47:15;;;;;;;0.00;0.00;;;25.00;99.90;;;;;;4980394;28;21040;-76
2022/07/30 10:50:09;;;;;;;0.00;0.00;;;25.00;99.90;;;;;;4980666;28;20433;-76
2022/07/30 10:52:49;;;;;;;0.00;0.00;;;25.00;99.90;;;;;;4980600;28;20468;-76
2022/07/30 10:55:18;;;;;;;0.00;0.00;;;25.10;99.90;;;;;;4991708;28;21067;-74
2022/07/30 10:58:06;;;;;;;0.00;0.00;;;25.20;99.90;;;;;;4996414;28;20495;-76
2022/07/30 11:00:36;;;;;;;0.00;0.00;;;25.30;99.90;;;;;;4999562;28;20790;-76
2022/07/30 11:03:16;;;;;;;0.00;0.00;;;25.40;99.90;;;;;;4999872;28;20469;-76
2022/07/30 11:05:48;;;;;;;0.00;0.00;;;25.30;99.90;;;;;;4998956;28;20937;-76
2022/07/30 11:08:30;;;;;;;0.00;0.00;;;25.30;99.90;;;;;;4998403;28;20479;-77
2022/07/30 11:11:04;;;;;;;0.00;0.00;;;25.20;99.90;;;;;;4999049;28;20535;-76
2022/07/30 11:13:52;;;;;;;0.00;0.00;;;25.10;99.90;;;;;;4991814;28;20488;-75
2022/07/30 11:16:22;;;;;;;0.00;0.00;;;25.10;99.90;;;;;;4993743;28;20446;-77
2022/07/30 11:19:04;;;;;;;0.00;0.00;;;25.10;99.90;;;;;;4993930;28;20487;-77
2022/07/30 11:22:22;;;;;;;0.00;0.00;;;25.10;99.90;;;;;;4997919;28;20597;-76
2022/07/30 11:24:50;;;;;;;0.00;0.00;;;25.00;99.90;;;;;;5000289;28;20564;-74
2022/07/30 11:27:38;;;;;;;0.00;0.00;;;25.00;99.90;;;;;;4998667;28;20469;-76
2022/07/30 11:30:34;;;;;;;0.00;0.00;;;25.00;99.90;;;;;;4996429;28;20444;-76
2022/07/30 11:33:23;;;;;;;0.00;0.00;;;25.00;99.90;;;;;;4999656;28;20534;-80
2022/07/30 11:36:09;;;;;;;0.00;0.00;;;25.00;99.90;;;;;;5002248;28;20492;-79
2022/07/30 11:38:54;;;;;;;0.00;0.00;;;25.00;99.90;;;;;;5001598;28;20494;-82
2022/07/30 11:41:26;;;;;;;0.00;0.00;;;25.00;99.90;;;;;;5001084;28;20505;-77
2022/07/30 11:44:28;;;;;;;0.00;0.00;;;25.00;99.90;;;;;;5004129;28;20449;-76
2022/07/30 11:46:56;;;;;;;0.00;0.00;;;25.00;99.90;;;;;;4993825;28;20813;-75
2022/07/30 11:49:25;;;;;;;0.00;0.00;;;25.00;99.90;;;;;;5001963;28;20469;-74
2022/07/30 11:51:54;;;;;;;0.00;0.00;;;24.90;99.90;;;;;;5001198;28;21319;-75
2022/07/30 11:54:25;;;;;;;0.00;0.00;;;24.80;99.90;;;;;;4999874;28;20515;-75
2022/07/30 11:56:56;;;;;;;0.00;0.00;;;24.70;99.90;;;;;;5003659;28;20440;-76
2022/07/30 11:59:30;;;;;;;0.00;0.00;;;24.70;99.90;;;;;;5000060;28;20538;-76
2022/07/30 12:02:00;;;;;;;0.00;0.00;;;24.50;99.90;;;;;;5000354;28;20467;-77
2022/07/30 12:04:30;;;;;;;0.00;0.00;;;24.60;99.90;;;;;;4996690;28;20436;-77
2022/07/30 12:06:58;;;;;;;0.00;0.00;;;24.70;99.90;;;;;;4998911;28;20432;-77
2022/07/30 12:09:28;;;;;;;0.00;0.00;;;24.70;99.90;;;;;;4998032;28;21159;-76
2022/07/30 12:11:56;;;;;;;0.00;0.00;;;24.80;99.90;;;;;;4998211;28;20457;-75
2022/07/30 12:14:25;;;;;;;0.00;0.00;;;24.90;99.90;;;;;;5000873;28;20544;-77
2022/07/30 12:16:54;;;;;;;0.00;0.00;;;25.10;99.90;;;;;;4997711;28;20563;-77
2022/07/30 12:19:22;;;;;;;0.00;0.00;;;25.30;99.90;;;;;;4980273;28;20733;-76
2022/07/30 12:21:50;;;;;;;0.00;0.00;;;25.50;99.90;;;;;;4979114;28;20457;-76
2022/07/30 12:24:25;;;;;;;0.00;0.00;;;25.50;99.90;;;;;;4978030;28;21262;-76
2022/07/30 12:27:04;;;;;;;0.00;0.00;;;25.60;99.90;;;;;;4977910;28;21114;-76
2022/07/30 12:29:33;;;;;;;0.00;0.00;;;25.90;99.90;;;;;;4978209;28;20450;-76
2022/07/30 12:32:01;;;;;;;0.00;0.00;;;26.00;99.90;;;;;;4976913;28;20981;-76
2022/07/30 12:34:29;;;;;;;0.00;0.00;;;26.10;99.90;;;;;;4978715;28;20840;-76
2022/07/30 12:37:07;;;;;;;0.00;0.00;;;26.30;99.90;;;;;;4979118;28;20447;-75
2022/07/30 12:39:35;;;;;;;0.00;0.00;;;26.50;99.90;;;;;;4979615;28;20483;-75
2022/07/30 12:42:04;;;;;;;0.00;0.00;;;26.70;99.90;;;;;;4978802;28;20464;-74
2022/07/30 12:44:37;;;;;;;0.00;0.00;;;26.90;99.90;;;;;;4979494;28;20441;-75
2022/07/30 12:47:07;;;;;;;0.00;0.00;;;27.10;99.90;;;;;;4979691;28;20447;-75
2022/07/30 12:49:34;;;;;;;0.00;0.00;;;27.30;99.90;;;;;;4979565;28;20952;-76
2022/07/30 12:52:23;;;;;;;0.00;0.00;;;27.40;99.90;;;;;;4981105;28;20467;-77
2022/07/30 12:55:07;;;;;;;0.00;0.00;;;27.60;99.90;;;;;;4998800;28;20670;-76
2022/07/30 12:57:57;;;;;;;0.00;0.00;;;27.70;99.90;;;;;;4987987;28;20618;-73
2022/07/30 13:00:26;;;;;;;0.00;0.00;;;27.80;99.90;;;;;;4978909;28;20489;-76
2022/07/30 13:02:54;;;;;;;0.00;0.00;;;27.80;99.90;;;;;;4978412;28;21026;-76
2022/07/30 13:05:46;;;;;;;0.00;0.00;;;27.80;99.90;;;;;;4978885;28;20865;-75
2022/07/30 13:08:14;;;;;;;0.00;0.00;;;27.70;99.90;;;;;;4979233;28;20457;-76
2022/07/30 13:10:56;;;;;;;0.00;0.00;;;27.60;99.90;;;;;;4979066;28;20440;-75
2022/07/30 13:13:28;;;;;;;0.00;0.00;;;27.60;99.90;;;;;;4981024;28;20463;-76
2022/07/30 13:15:59;;;;;;;0.00;0.00;;;27.60;99.90;;;;;;4978421;28;20539;-76
2022/07/30 13:18:28;;;;;;;0.00;0.00;;;27.60;99.90;;;;;;4978521;28;20842;-76
2022/07/30 13:20:56;;;;;;;0.00;0.00;;;27.50;99.90;;;;;;4978691;28;20450;-76
2022/07/30 13:23:26;;;;;;;0.00;0.00;;;27.60;99.90;;;;;;4979105;28;20560;-76